Whalan, Minnesota
Current Conditions -  °F | °C
As of 1:35 PM on Tuesday 21 Oct 2014 (Local Time) from KFKA Reporting Station
Clear Clear  
Wind Chill: 53°   Ceiling: Unl
Heat Index: 53°   Visibility: 10mi
Dew Point: 39°   Wind: 7mph
Humidity: 59%   Direction: 100°E
Pressure: 30.19"   Gusts: NA
Location:  43.7165°N, 91.9871°W
Report Text: KFKA 211835Z AUTO 10006KT 10SM CLR 12/04 A3019 RMK AO2 T01160039
Loading
Personal Weather Stations






























Interactive Weather Map
Tropical Storm Tracking
New forecast layout! Learn more

10-Day Weather Forecast

Advertisements
Track Severe Weather on mobile